createdAt,value
2019-02-04T00:01:17.420Z,99.90
2019-02-04T00:03:44.377Z,99.90
2019-02-04T00:06:11.832Z,99.90
2019-02-04T00:08:38.982Z,99.90
2019-02-04T00:11:05.828Z,99.90
2019-02-04T00:13:32.670Z,99.90
2019-02-04T00:15:59.820Z,99.90
2019-02-04T00:18:26.664Z,99.90
2019-02-04T00:20:54.066Z,99.90
2019-02-04T00:23:21.271Z,99.90
2019-02-04T00:25:48.114Z,99.90
2019-02-04T00:28:14.900Z,99.90
2019-02-04T00:30:41.801Z,99.90
2019-02-04T00:33:08.645Z,99.90
2019-02-04T00:35:35.487Z,99.90
2019-02-04T00:38:02.639Z,99.90
2019-02-04T00:40:30.639Z,99.90
2019-02-04T00:42:57.553Z,99.90
2019-02-04T00:45:24.750Z,99.90
2019-02-04T00:47:51.854Z,99.90
2019-02-04T00:50:22.780Z,99.90
2019-02-04T00:52:49.845Z,99.90
2019-02-04T00:55:16.684Z,99.90
2019-02-04T00:57:44.142Z,99.90
2019-02-04T01:00:18.052Z,99.90
2019-02-04T01:02:45.202Z,99.90
2019-02-04T01:05:15.425Z,99.90
2019-02-04T01:07:42.576Z,99.90
2019-02-04T01:10:13.105Z,99.90
2019-02-04T01:12:39.950Z,99.90
2019-02-04T01:15:07.144Z,99.90
2019-02-04T01:17:33.943Z,99.90
2019-02-04T01:20:01.093Z,99.90
2019-02-04T01:22:28.243Z,99.90
2019-02-04T01:24:55.396Z,99.90
2019-02-04T01:27:22.172Z,99.90
2019-02-04T01:29:49.082Z,99.90
2019-02-04T01:32:15.925Z,99.90
2019-02-04T01:34:42.766Z,99.90
2019-02-04T01:37:09.612Z,99.90
2019-02-04T01:39:36.453Z,99.90
2019-02-04T01:42:03.604Z,99.90
2019-02-04T01:44:30.792Z,99.90
2019-02-04T01:46:57.597Z,99.90
2019-02-04T01:49:24.440Z,99.90
2019-02-04T01:51:51.591Z,99.90
2019-02-04T01:54:18.435Z,99.90
2019-02-04T01:56:45.277Z,99.90
2019-02-04T01:59:12.428Z,99.90
2019-02-04T02:01:39.579Z,99.90
2019-02-04T02:04:06.422Z,99.90
2019-02-04T02:06:33.573Z,99.90
2019-02-04T02:09:00.417Z,99.90
2019-02-04T02:11:27.260Z,99.90
2019-02-04T02:13:54.410Z,99.90
2019-02-04T02:16:21.253Z,99.90
2019-02-04T02:18:48.096Z,99.90
2019-02-04T02:21:15.247Z,99.90
2019-02-04T02:23:42.397Z,99.90
2019-02-04T02:26:09.241Z,99.90
2019-02-04T02:28:36.394Z,99.90
2019-02-04T02:31:03.235Z,99.90
2019-02-04T02:33:30.081Z,99.90
2019-02-04T02:35:57.228Z,99.90
2019-02-04T02:38:24.378Z,99.90
2019-02-04T02:40:51.223Z,99.90
2019-02-04T02:43:18.372Z,99.90
2019-02-04T02:45:45.217Z,99.90
2019-02-04T02:48:12.059Z,99.90
2019-02-04T02:50:39.209Z,99.90
2019-02-04T02:53:06.059Z,99.90
2019-02-04T02:55:32.896Z,99.90
2019-02-04T02:58:00.047Z,99.90
2019-02-04T03:00:27.714Z,99.90
2019-02-04T03:02:54.655Z,99.90
2019-02-04T03:05:21.808Z,99.90
2019-02-04T03:07:48.955Z,99.90
2019-02-04T03:10:24.445Z,99.90
2019-02-04T03:12:51.247Z,99.90
2019-02-04T03:15:18.087Z,99.90
2019-02-04T03:17:51.984Z,99.90
2019-02-04T03:20:13.927Z,99.90
2019-02-04T03:22:41.138Z,99.90
2019-02-04T03:25:10.995Z,99.90
2019-02-04T03:27:38.143Z,99.90
2019-02-04T03:30:17.891Z,99.90
2019-02-04T03:32:44.742Z,99.90
2019-02-04T03:35:12.102Z,99.90
2019-02-04T03:37:39.338Z,99.90
2019-02-04T03:40:09.718Z,99.90
2019-02-04T03:42:37.024Z,99.90
2019-02-04T03:45:05.391Z,99.90
2019-02-04T03:47:32.242Z,99.90
2019-02-04T03:49:59.083Z,99.90
2019-02-04T03:52:26.236Z,99.90
2019-02-04T03:54:53.082Z,99.90
2019-02-04T03:57:19.922Z,99.90
2019-02-04T03:59:47.071Z,99.90
2019-02-04T04:02:13.916Z,99.90
2019-02-04T04:04:40.703Z,99.90
2019-02-04T04:07:07.603Z,99.90
2019-02-04T04:09:34.444Z,99.90
2019-02-04T04:12:01.288Z,99.90
2019-02-04T04:14:28.449Z,99.90
2019-02-04T04:16:55.627Z,99.90
2019-02-04T04:19:22.739Z,99.90
2019-02-04T04:21:49.892Z,99.90
2019-02-04T04:24:16.859Z,99.90
2019-02-04T04:26:43.883Z,99.90
2019-02-04T04:29:11.034Z,99.90
2019-02-04T04:31:37.877Z,99.90
2019-02-04T04:34:05.027Z,99.90
2019-02-04T04:36:31.916Z,99.90
2019-02-04T04:38:59.022Z,99.90
2019-02-04T04:41:25.865Z,99.90
2019-02-04T04:43:52.842Z,99.90
2019-02-04T04:46:19.859Z,99.90
2019-02-04T04:48:46.702Z,99.90
2019-02-04T04:51:13.852Z,99.90
2019-02-04T04:53:40.696Z,99.90
2019-02-04T04:56:07.539Z,99.90
2019-02-04T04:58:34.690Z,99.90
2019-02-04T05:01:01.533Z,99.90
2019-02-04T05:03:28.376Z,99.90
2019-02-04T05:05:55.526Z,99.90
2019-02-04T05:08:22.984Z,99.90
2019-02-04T05:10:49.834Z,99.90
2019-02-04T05:13:16.977Z,99.90
2019-02-04T05:15:43.821Z,99.90
2019-02-04T05:18:10.665Z,99.90
2019-02-04T05:20:37.815Z,99.90
2019-02-04T05:23:04.708Z,99.90
2019-02-04T05:25:33.112Z,99.90
2019-02-04T05:28:00.188Z,99.90
2019-02-04T05:30:27.031Z,99.90
2019-02-04T05:32:53.876Z,99.90
2019-02-04T05:35:20.764Z,99.90
2019-02-04T05:37:47.720Z,99.90
2019-02-04T05:40:16.138Z,99.90
2019-02-04T05:42:43.706Z,99.90
2019-02-04T05:45:12.861Z,99.90
2019-02-04T05:47:39.850Z,99.90
2019-02-04T05:50:10.083Z,99.90
2019-02-04T05:52:36.915Z,99.90
2019-02-04T05:55:05.180Z,99.90
2019-02-04T05:57:32.138Z,99.90
2019-02-04T05:59:59.595Z,99.90
2019-02-04T06:02:26.438Z,99.90
2019-02-04T06:04:53.897Z,99.90
2019-02-04T06:07:20.740Z,99.90
2019-02-04T06:09:47.568Z,99.90
2019-02-04T06:12:14.425Z,99.90
2019-02-04T06:14:41.271Z,99.90
2019-02-04T06:17:08.731Z,99.90
2019-02-04T06:19:35.616Z,99.90
2019-02-04T06:22:02.413Z,99.90
2019-02-04T06:24:29.257Z,99.90
2019-02-04T06:26:56.144Z,99.90
2019-02-04T06:29:22.943Z,99.90
2019-02-04T06:31:49.786Z,99.90
2019-02-04T06:34:17.355Z,99.90
2019-02-04T06:36:44.394Z,99.90
2019-02-04T06:39:11.239Z,99.90
2019-02-04T06:41:38.391Z,99.90
2019-02-04T06:44:05.233Z,99.90
2019-02-04T06:46:32.074Z,99.90
2019-02-04T06:48:59.225Z,99.90
2019-02-04T06:51:26.069Z,99.90
2019-02-04T06:53:52.912Z,99.90
2019-02-04T06:56:20.063Z,99.90
2019-02-04T06:58:46.906Z,99.90
2019-02-04T07:01:13.749Z,99.90
2019-02-04T07:03:40.899Z,99.90
2019-02-04T07:06:07.744Z,99.90
2019-02-04T07:08:34.588Z,99.90
2019-02-04T07:11:02.044Z,99.90
2019-02-04T07:13:28.887Z,99.90
2019-02-04T07:15:55.709Z,99.90
2019-02-04T07:18:22.580Z,99.90
2019-02-04T07:20:49.416Z,99.90
2019-02-04T07:23:16.257Z,99.90
2019-02-04T07:25:43.415Z,99.90
2019-02-04T07:28:10.300Z,99.90
2019-02-04T07:30:37.097Z,99.90
2019-02-04T07:33:04.248Z,99.90
2019-02-04T07:35:31.092Z,99.90
2019-02-04T07:37:57.936Z,99.90
2019-02-04T07:40:29.540Z,99.90
2019-02-04T07:42:56.537Z,99.90
2019-02-04T07:45:23.635Z,99.90
2019-02-04T07:47:52.987Z,99.90
2019-02-04T07:50:19.831Z,99.90
2019-02-04T07:52:46.797Z,99.90
2019-02-04T07:55:14.438Z,99.90
2019-02-04T07:57:41.282Z,99.90
2019-02-04T08:00:23.486Z,99.90
2019-02-04T08:02:50.848Z,99.90
2019-02-04T08:05:17.787Z,99.90
2019-02-04T08:07:44.937Z,99.90
2019-02-04T08:10:13.796Z,99.90
2019-02-04T08:12:40.774Z,99.90
2019-02-04T08:15:11.099Z,99.90
2019-02-04T08:17:37.845Z,99.90
2019-02-04T08:20:07.005Z,99.90
2019-02-04T08:22:33.828Z,99.90
2019-02-04T08:25:00.827Z,99.90
2019-02-04T08:27:27.670Z,99.90
2019-02-04T08:29:54.564Z,99.90
2019-02-04T08:32:21.359Z,99.90
2019-02-04T08:34:48.814Z,99.90
2019-02-04T08:37:15.965Z,99.90
2019-02-04T08:39:42.817Z,99.90
2019-02-04T08:42:09.666Z,99.90
2019-02-04T08:44:36.802Z,99.90
2019-02-04T08:47:03.645Z,99.90
2019-02-04T08:49:30.795Z,99.90
2019-02-04T08:51:57.946Z,99.90
2019-02-04T08:54:25.098Z,99.90
2019-02-04T08:56:51.940Z,99.90
2019-02-04T08:59:18.834Z,99.90
2019-02-04T09:01:45.627Z,99.90
2019-02-04T09:04:12.470Z,99.90
2019-02-04T09:06:39.621Z,99.90
2019-02-04T09:09:07.385Z,99.90
2019-02-04T09:11:34.535Z,99.90
2019-02-04T09:14:01.993Z,99.90
2019-02-04T09:16:28.780Z,99.90
2019-02-04T09:18:55.678Z,99.90
2019-02-04T09:21:22.829Z,99.90
2019-02-04T09:23:49.673Z,99.90
2019-02-04T09:26:16.826Z,99.90
2019-02-04T09:28:43.975Z,99.90
2019-02-04T09:31:11.124Z,99.90
2019-02-04T09:33:37.968Z,99.90
2019-02-04T09:36:05.120Z,99.90
2019-02-04T09:38:31.962Z,99.90
2019-02-04T09:40:59.216Z,99.90
2019-02-04T09:43:26.262Z,99.90
2019-02-04T09:45:53.106Z,99.90
2019-02-04T09:48:20.563Z,99.90
2019-02-04T09:50:50.786Z,99.90
2019-02-04T09:53:17.629Z,99.90
2019-02-04T09:55:44.477Z,99.90
2019-02-04T09:58:11.625Z,99.90
2019-02-04T10:00:38.472Z,99.90
2019-02-04T10:03:06.497Z,99.90
2019-02-04T10:05:33.384Z,99.90
2019-02-04T10:08:00.840Z,99.90
2019-02-04T10:10:29.834Z,99.90
2019-02-04T10:12:56.984Z,99.90
2019-02-04T10:15:26.911Z,99.90
2019-02-04T10:17:54.050Z,99.90
2019-02-04T10:20:32.785Z,99.90
2019-02-04T10:22:49.583Z,99.90
2019-02-04T10:25:22.016Z,99.90
2019-02-04T10:27:50.028Z,99.90
2019-02-04T10:30:19.973Z,99.90
2019-02-04T10:32:47.611Z,99.90
2019-02-04T10:35:16.929Z,99.90
2019-02-04T10:37:44.721Z,99.90
2019-02-04T10:40:23.612Z,99.90
2019-02-04T10:42:50.438Z,99.90
2019-02-04T10:45:18.817Z,99.90
2019-02-04T10:47:46.041Z,99.90
2019-02-04T10:50:21.995Z,99.90
2019-02-04T10:52:48.881Z,99.90
2019-02-04T10:55:15.748Z,99.90
2019-02-04T10:57:42.879Z,99.90
2019-02-04T11:00:25.711Z,99.90
2019-02-04T11:02:52.530Z,99.90
2019-02-04T11:05:22.772Z,99.90
2019-02-04T11:07:49.904Z,99.90
2019-02-04T11:10:20.740Z,99.90
2019-02-04T11:12:47.886Z,99.90
2019-02-04T11:15:16.003Z,99.90
2019-02-04T11:17:42.902Z,99.90
2019-02-04T11:20:19.211Z,99.90
2019-02-04T11:22:46.669Z,99.90
2019-02-04T11:25:14.444Z,99.90
2019-02-04T11:27:41.273Z,99.90
2019-02-04T11:30:18.235Z,99.90
2019-02-04T11:32:45.376Z,99.90
2019-02-04T11:35:12.519Z,99.90
2019-02-04T11:37:39.434Z,99.90
2019-02-04T11:40:13.005Z,99.90
2019-02-04T11:42:39.809Z,99.90
2019-02-04T11:45:08.731Z,99.90
2019-02-04T11:47:35.666Z,99.90
2019-02-04T11:50:05.557Z,99.90
2019-02-04T11:52:35.024Z,99.90
2019-02-04T11:55:01.087Z,99.90
2019-02-04T11:57:27.930Z,99.90
2019-02-04T11:59:54.821Z,99.90
2019-02-04T12:02:21.924Z,99.90
2019-02-04T12:04:48.768Z,99.90
2019-02-04T12:07:15.918Z,99.90
2019-02-04T12:09:42.762Z,99.90
2019-02-04T12:12:10.219Z,99.90
2019-02-04T12:14:37.370Z,99.90
2019-02-04T12:17:04.213Z,99.90
2019-02-04T12:19:31.056Z,99.90
2019-02-04T12:21:58.259Z,99.90
2019-02-04T12:24:25.666Z,99.90
2019-02-04T12:26:52.552Z,99.90
2019-02-04T12:29:20.579Z,99.90
2019-02-04T12:31:47.423Z,99.90
2019-02-04T12:34:14.266Z,99.90
2019-02-04T12:36:41.418Z,99.90
2019-02-04T12:39:10.411Z,99.90
2019-02-04T12:41:37.258Z,99.90
2019-02-04T12:44:04.449Z,99.90
2019-02-04T12:46:31.252Z,99.90
2019-02-04T12:48:58.094Z,99.90
2019-02-04T12:51:33.399Z,99.90
2019-02-04T12:53:53.934Z,99.90
2019-02-04T12:56:20.771Z,99.90
2019-02-04T12:58:55.399Z,99.90
2019-02-04T13:01:16.301Z,99.90
2019-02-04T13:03:43.145Z,99.90
2019-02-04T13:06:10.846Z,99.90
2019-02-04T13:08:37.753Z,99.90
2019-02-04T13:11:04.903Z,99.90
2019-02-04T13:13:32.056Z,99.90
2019-02-04T13:15:58.897Z,99.90
2019-02-04T13:18:26.047Z,99.90
2019-02-04T13:20:53.198Z,99.90
2019-02-04T13:23:20.348Z,99.90
2019-02-04T13:25:47.193Z,99.90
2019-02-04T13:28:14.921Z,99.90
2019-02-04T13:30:41.799Z,99.90
2019-02-04T13:33:08.643Z,99.90
2019-02-04T13:35:36.102Z,99.90
2019-02-04T13:38:04.377Z,99.90
2019-02-04T13:40:31.488Z,99.90
2019-02-04T13:42:58.781Z,99.90
2019-02-04T13:45:27.160Z,99.90
2019-02-04T13:47:54.932Z,99.90
2019-02-04T13:50:22.997Z,99.90
2019-02-04T13:52:50.970Z,99.90
2019-02-04T13:55:25.719Z,99.90
2019-02-04T13:57:52.481Z,98.30
2019-02-04T14:02:58.516Z,93.60
2019-02-04T14:05:15.912Z,90.20
2019-02-04T14:07:42.882Z,84.20
2019-02-04T14:10:15.822Z,81.80
2019-02-04T14:12:45.452Z,81.90
2019-02-04T14:15:14.080Z,76.70
2019-02-04T14:17:41.008Z,70.40
2019-02-04T14:34:54.719Z,63.10
2019-02-04T14:37:22.216Z,49.10
2019-02-04T14:39:49.364Z,51.10
2019-02-04T14:44:45.235Z,50.00
2019-02-04T14:47:18.795Z,50.30
2019-02-04T14:49:58.235Z,47.30
2019-02-04T14:52:28.726Z,49.30
2019-02-04T14:55:08.201Z,48.10
2019-02-04T14:57:41.497Z,48.00
2019-02-04T15:00:24.928Z,47.50
2019-02-04T15:03:19.449Z,50.80
2019-02-04T15:05:56.560Z,50.00
2019-02-04T15:08:33.261Z,49.20
2019-02-04T15:11:08.521Z,49.10
2019-02-04T15:13:54.057Z,51.80
2019-02-04T15:16:36.615Z,50.40
2019-02-04T15:19:27.112Z,49.90
2019-02-04T15:22:09.929Z,49.10
2019-02-04T15:24:55.820Z,50.50
2019-02-04T15:27:43.552Z,49.80
2019-02-04T15:30:32.252Z,51.70
2019-02-04T15:33:22.410Z,51.30
2019-02-04T15:35:55.694Z,51.00
2019-02-04T15:38:29.297Z,51.90
2019-02-04T15:41:08.733Z,56.00
2019-02-04T15:44:00.769Z,57.80
2019-02-04T15:46:49.424Z,58.30
2019-02-04T15:49:35.005Z,58.60
2019-02-04T15:56:56.148Z,62.70
2019-02-04T15:59:23.300Z,68.10
2019-02-04T16:04:28.576Z,70.40
2019-02-04T16:06:55.504Z,81.30
2019-02-04T16:09:22.358Z,91.20
2019-02-04T16:11:49.498Z,97.60
2019-02-04T16:14:16.340Z,99.90
2019-02-04T16:16:43.184Z,99.90
2019-02-04T16:19:10.642Z,99.90
2019-02-04T16:21:37.486Z,99.90
2019-02-04T16:24:04.945Z,99.90
2019-02-04T16:26:31.952Z,99.90
2019-02-04T16:28:58.936Z,99.90
2019-02-04T16:31:25.779Z,99.90
2019-02-04T16:33:52.932Z,99.90
2019-02-04T16:36:20.388Z,99.90
2019-02-04T16:38:47.232Z,99.90
2019-02-04T16:41:14.386Z,99.90
2019-02-04T16:43:41.226Z,99.90
2019-02-04T16:46:08.069Z,99.90
2019-02-04T16:48:34.912Z,99.90
2019-02-04T16:51:11.388Z,99.90
2019-02-04T16:53:30.441Z,99.90
2019-02-04T16:55:57.591Z,99.90
2019-02-04T16:58:24.435Z,99.90
2019-02-04T17:00:51.281Z,99.90
2019-02-04T17:03:18.876Z,99.90
2019-02-04T17:05:45.737Z,99.90
2019-02-04T17:08:12.730Z,99.90
2019-02-04T17:10:39.983Z,99.90
2019-02-04T17:13:07.340Z,99.90
2019-02-04T17:15:34.186Z,99.90
2019-02-04T17:18:01.333Z,99.90
2019-02-04T17:20:30.493Z,99.90
2019-02-04T17:22:57.578Z,99.90
2019-02-04T17:25:24.627Z,99.90
2019-02-04T17:27:51.788Z,99.90
2019-02-04T17:30:22.618Z,99.90
2019-02-04T17:32:49.459Z,99.90
2019-02-04T17:35:16.919Z,99.90
2019-02-04T17:37:44.068Z,99.90
2019-02-04T17:40:17.975Z,99.90
2019-02-04T17:42:45.127Z,99.90
2019-02-04T17:45:14.677Z,99.90
2019-02-04T17:47:41.885Z,99.90
2019-02-04T17:50:12.066Z,99.90
2019-02-04T17:52:38.870Z,99.90
2019-02-04T17:55:09.480Z,99.90
2019-02-04T17:57:36.326Z,99.90
2019-02-04T18:00:08.658Z,99.90
2019-02-04T18:02:35.539Z,99.90
2019-02-04T18:05:02.694Z,99.90
2019-02-04T18:07:29.533Z,99.90
2019-02-04T18:09:56.685Z,99.90
2019-02-04T18:12:23.527Z,99.90
2019-02-04T18:14:50.372Z,99.90
2019-02-04T18:17:17.521Z,99.90
2019-02-04T18:19:44.366Z,99.90
2019-02-04T18:22:11.211Z,99.90
2019-02-04T18:24:38.358Z,99.90
2019-02-04T18:27:05.816Z,99.90
2019-02-04T18:29:32.966Z,99.90
2019-02-04T18:32:00.424Z,99.90
2019-02-04T18:34:27.268Z,99.90
2019-02-04T18:36:54.110Z,99.90
2019-02-04T18:39:21.101Z,99.90
2019-02-04T18:41:48.105Z,99.90
2019-02-04T18:44:14.947Z,99.90
2019-02-04T18:46:42.405Z,99.90
2019-02-04T18:49:09.253Z,99.90
2019-02-04T18:51:36.096Z,99.90
2019-02-04T18:54:03.551Z,99.90
2019-02-04T18:56:30.397Z,99.90
2019-02-04T18:58:57.274Z,99.90
2019-02-04T19:01:25.004Z,99.90
2019-02-04T19:03:53.381Z,99.90
2019-02-04T19:06:22.771Z,99.90
2019-02-04T19:08:49.942Z,99.90
2019-02-04T19:11:18.836Z,99.90
2019-02-04T19:13:45.669Z,99.90
2019-02-04T19:16:12.821Z,99.90
2019-02-04T19:18:39.666Z,99.90
2019-02-04T19:21:06.506Z,99.90
2019-02-04T19:23:33.351Z,99.90
2019-02-04T19:26:00.807Z,99.90
2019-02-04T19:28:27.650Z,99.90
2019-02-04T19:31:01.296Z,99.90
2019-02-04T19:33:28.147Z,99.90
2019-02-04T19:35:55.246Z,99.90
2019-02-04T19:38:22.409Z,99.90
2019-02-04T19:40:49.710Z,99.90
2019-02-04T19:43:17.004Z,99.90
2019-02-04T19:45:43.896Z,99.90
2019-02-04T19:48:10.998Z,99.90
2019-02-04T19:50:38.154Z,99.90
2019-02-04T19:53:05.964Z,99.90
2019-02-04T19:55:34.706Z,99.90
2019-02-04T19:58:01.762Z,99.90
2019-02-04T20:00:32.693Z,99.90
2019-02-04T20:03:00.049Z,99.90
2019-02-04T20:05:28.386Z,99.90
2019-02-04T20:07:55.789Z,99.90
2019-02-04T20:10:25.412Z,99.90
2019-02-04T20:12:52.350Z,99.90
2019-02-04T20:15:21.299Z,99.90
2019-02-04T20:17:48.172Z,99.90
2019-02-04T20:20:15.289Z,99.90
2019-02-04T20:22:42.167Z,99.90
2019-02-04T20:25:17.969Z,99.90
2019-02-04T20:27:45.069Z,99.90
2019-02-04T20:30:21.341Z,99.90
2019-02-04T20:32:48.278Z,99.90
2019-02-04T20:35:16.657Z,99.90
2019-02-04T20:37:43.813Z,99.90
2019-02-04T20:40:17.108Z,99.90
2019-02-04T20:42:43.945Z,99.90
2019-02-04T20:45:13.156Z,99.90
2019-02-04T20:47:40.705Z,99.90
2019-02-04T20:50:11.234Z,99.90
2019-02-04T20:52:38.384Z,99.90
2019-02-04T20:55:05.748Z,99.90
2019-02-04T20:57:32.686Z,99.90
2019-02-04T20:59:59.576Z,99.90
2019-02-04T21:02:26.373Z,99.90
2019-02-04T21:04:53.832Z,99.90
2019-02-04T21:07:20.673Z,99.90
2019-02-04T21:09:47.516Z,99.90
2019-02-04T21:12:14.362Z,99.90
2019-02-04T21:14:41.202Z,99.90
2019-02-04T21:17:08.046Z,99.90
2019-02-04T21:19:34.894Z,99.90
2019-02-04T21:22:02.042Z,99.90
2019-02-04T21:24:28.619Z,99.90
2019-02-04T21:26:55.267Z,99.90
2019-02-04T21:29:21.955Z,99.90
2019-02-04T21:31:48.798Z,99.90
2019-02-04T21:34:15.380Z,99.90
2019-02-04T21:36:42.179Z,99.90
2019-02-04T21:39:09.331Z,99.90
2019-02-04T21:41:36.481Z,99.90
2019-02-04T21:44:03.367Z,99.90
2019-02-04T21:46:29.904Z,99.90
2019-02-04T21:48:56.702Z,99.90
2019-02-04T21:51:23.284Z,99.90
2019-02-04T21:53:50.083Z,99.90
2019-02-04T21:56:16.925Z,99.90
2019-02-04T21:58:44.076Z,99.90
2019-02-04T22:01:11.228Z,99.90
2019-02-04T22:03:37.763Z,99.90
2019-02-04T22:06:04.606Z,99.90
2019-02-04T22:08:31.143Z,99.90
2019-02-04T22:10:57.984Z,99.90
2019-02-04T22:13:24.828Z,99.90
2019-02-04T22:15:51.979Z,99.90
2019-02-04T22:18:18.822Z,99.90
2019-02-04T22:20:45.973Z,99.90
2019-02-04T22:23:12.816Z,99.90
2019-02-04T22:25:40.273Z,99.90
2019-02-04T22:28:06.964Z,99.90
2019-02-04T22:30:33.900Z,99.90
2019-02-04T22:33:00.805Z,99.90
2019-02-04T22:35:27.417Z,99.90
2019-02-04T22:37:54.290Z,99.90
2019-02-04T22:40:23.483Z,99.90
2019-02-04T22:42:50.887Z,99.90
2019-02-04T22:45:17.943Z,99.90
2019-02-04T22:47:44.936Z,99.90
2019-02-04T22:50:24.067Z,99.90
2019-02-04T22:52:50.909Z,99.90
2019-02-04T22:55:18.981Z,99.90
2019-02-04T22:57:45.868Z,99.90
2019-02-04T23:00:42.163Z,99.90
2019-02-04T23:03:09.877Z,99.90
2019-02-04T23:05:36.769Z,99.90
2019-02-04T23:08:04.726Z,99.90
2019-02-04T23:10:31.683Z,99.90
2019-02-04T23:12:58.529Z,99.90
2019-02-04T23:15:25.372Z,99.90
2019-02-04T23:17:52.225Z,99.90
2019-02-04T23:20:19.075Z,99.90
2019-02-04T23:22:46.514Z,99.90
2019-02-04T23:25:13.665Z,99.90
2019-02-04T23:27:40.508Z,99.90
2019-02-04T23:30:13.803Z,99.90
2019-02-04T23:32:40.954Z,99.90
2019-02-04T23:35:08.921Z,99.90
2019-02-04T23:37:36.177Z,99.90
2019-02-04T23:40:05.470Z,99.90
2019-02-04T23:42:32.320Z,99.90
2019-02-04T23:44:59.163Z,99.90
2019-02-04T23:47:26.011Z,99.90
2019-02-04T23:49:52.849Z,99.90
2019-02-04T23:52:19.692Z,99.90
2019-02-04T23:54:46.580Z,99.90
2019-02-04T23:57:13.481Z,99.90
2019-02-04T23:59:40.223Z,99.90
